sensor_id;sensor_type;location;lat;lon;timestamp;temperature;humidity
5796;DHT22;2924;51.458;7.046;2023-05-20T00:02:01;11.40;99.90
5796;DHT22;2924;51.458;7.046;2023-05-20T00:04:27;11.40;99.90
5796;DHT22;2924;51.458;7.046;2023-05-20T00:06:52;11.50;99.90
5796;DHT22;2924;51.458;7.046;2023-05-20T00:09:19;11.40;99.90
5796;DHT22;2924;51.458;7.046;2023-05-20T00:11:45;11.40;99.90
5796;DHT22;2924;51.458;7.046;2023-05-20T00:14:11;11.30;99.90
5796;DHT22;2924;51.458;7.046;2023-05-20T00:16:36;11.20;99.90
5796;DHT22;2924;51.458;7.046;2023-05-20T00:19:02;11.10;99.90
5796;DHT22;2924;51.458;7.046;2023-05-20T00:21:27;11.20;99.90
5796;DHT22;2924;51.458;7.046;2023-05-20T00:23:54;11.20;99.90
5796;DHT22;2924;51.458;7.046;2023-05-20T00:26:20;11.20;99.90
5796;DHT22;2924;51.458;7.046;2023-05-20T00:28:46;11.30;99.90
5796;DHT22;2924;51.458;7.046;2023-05-20T00:31:11;11.30;99.90
5796;DHT22;2924;51.458;7.046;2023-05-20T00:33:38;11.20;99.90
5796;DHT22;2924;51.458;7.046;2023-05-20T00:36:03;11.20;99.90
5796;DHT22;2924;51.458;7.046;2023-05-20T00:38:29;11.30;99.90
5796;DHT22;2924;51.458;7.046;2023-05-20T00:40:55;11.30;99.90
5796;DHT22;2924;51.458;7.046;2023-05-20T00:43:20;11.30;99.90
5796;DHT22;2924;51.458;7.046;2023-05-20T00:45:47;11.30;99.90
5796;DHT22;2924;51.458;7.046;2023-05-20T00:48:12;11.20;99.90
5796;DHT22;2924;51.458;7.046;2023-05-20T00:50:38;11.20;99.90
5796;DHT22;2924;51.458;7.046;2023-05-20T00:53:05;11.00;99.90
5796;DHT22;2924;51.458;7.046;2023-05-20T00:55:31;10.90;99.90
5796;DHT22;2924;51.458;7.046;2023-05-20T00:57:56;10.90;99.90
5796;DHT22;2924;51.458;7.046;2023-05-20T01:00:22;10.90;99.90
5796;DHT22;2924;51.458;7.046;2023-05-20T01:02:48;11.00;99.90
5796;DHT22;2924;51.458;7.046;2023-05-20T01:05:14;11.00;99.90
5796;DHT22;2924;51.458;7.046;2023-05-20T01:07:39;11.00;99.90
5796;DHT22;2924;51.458;7.046;2023-05-20T01:10:06;10.90;99.90
5796;DHT22;2924;51.458;7.046;2023-05-20T01:12:41;10.90;99.90
5796;DHT22;2924;51.458;7.046;2023-05-20T01:15:09;10.80;99.90
5796;DHT22;2924;51.458;7.046;2023-05-20T01:17:40;10.80;99.90
5796;DHT22;2924;51.458;7.046;2023-05-20T01:20:09;10.70;99.90
5796;DHT22;2924;51.458;7.046;2023-05-20T01:22:37;10.70;99.90
5796;DHT22;2924;51.458;7.046;2023-05-20T01:25:03;10.60;99.90
5796;DHT22;2924;51.458;7.046;2023-05-20T01:27:29;10.60;99.90
5796;DHT22;2924;51.458;7.046;2023-05-20T01:29:55;10.50;99.90
5796;DHT22;2924;51.458;7.046;2023-05-20T01:32:24;10.50;99.90
5796;DHT22;2924;51.458;7.046;2023-05-20T01:34:51;10.50;99.90
5796;DHT22;2924;51.458;7.046;2023-05-20T01:37:18;10.30;99.90
5796;DHT22;2924;51.458;7.046;2023-05-20T01:39:44;10.20;99.90
5796;DHT22;2924;51.458;7.046;2023-05-20T01:42:11;10.00;99.90
5796;DHT22;2924;51.458;7.046;2023-05-20T01:44:38;9.90;99.90
5796;DHT22;2924;51.458;7.046;2023-05-20T01:47:04;9.90;99.90
5796;DHT22;2924;51.458;7.046;2023-05-20T01:49:29;9.80;99.90
5796;DHT22;2924;51.458;7.046;2023-05-20T01:51:56;9.80;99.90
5796;DHT22;2924;51.458;7.046;2023-05-20T01:54:22;9.80;99.90
5796;DHT22;2924;51.458;7.046;2023-05-20T01:56:48;9.70;99.90
5796;DHT22;2924;51.458;7.046;2023-05-20T01:59:14;9.70;99.90
5796;DHT22;2924;51.458;7.046;2023-05-20T02:01:40;9.60;99.90
5796;DHT22;2924;51.458;7.046;2023-05-20T02:04:05;9.60;99.90
5796;DHT22;2924;51.458;7.046;2023-05-20T02:06:31;9.50;99.90
5796;DHT22;2924;51.458;7.046;2023-05-20T02:08:56;9.40;99.90
5796;DHT22;2924;51.458;7.046;2023-05-20T02:11:22;9.50;99.90
5796;DHT22;2924;51.458;7.046;2023-05-20T02:13:49;9.50;99.90
5796;DHT22;2924;51.458;7.046;2023-05-20T02:16:15;9.50;99.90
5796;DHT22;2924;51.458;7.046;2023-05-20T02:18:40;9.50;99.90
5796;DHT22;2924;51.458;7.046;2023-05-20T02:21:07;9.40;99.90
5796;DHT22;2924;51.458;7.046;2023-05-20T02:23:33;9.40;99.90
5796;DHT22;2924;51.458;7.046;2023-05-20T02:26:00;9.40;99.90
5796;DHT22;2924;51.458;7.046;2023-05-20T02:28:26;9.40;99.90
5796;DHT22;2924;51.458;7.046;2023-05-20T02:30:51;9.30;99.90
5796;DHT22;2924;51.458;7.046;2023-05-20T02:33:18;9.20;99.90
5796;DHT22;2924;51.458;7.046;2023-05-20T02:35:43;9.20;99.90
5796;DHT22;2924;51.458;7.046;2023-05-20T02:38:10;9.00;99.90
5796;DHT22;2924;51.458;7.046;2023-05-20T02:40:36;9.00;99.90
5796;DHT22;2924;51.458;7.046;2023-05-20T02:43:01;9.00;99.90
5796;DHT22;2924;51.458;7.046;2023-05-20T02:45:27;9.00;99.90
5796;DHT22;2924;51.458;7.046;2023-05-20T02:47:53;9.10;99.90
5796;DHT22;2924;51.458;7.046;2023-05-20T02:50:18;9.10;99.90
5796;DHT22;2924;51.458;7.046;2023-05-20T02:52:44;9.10;99.90
5796;DHT22;2924;51.458;7.046;2023-05-20T02:55:10;9.10;99.90
5796;DHT22;2924;51.458;7.046;2023-05-20T02:57:36;9.10;99.90
5796;DHT22;2924;51.458;7.046;2023-05-20T03:00:07;9.20;99.90
5796;DHT22;2924;51.458;7.046;2023-05-20T03:02:35;9.20;99.90
5796;DHT22;2924;51.458;7.046;2023-05-20T03:05:00;9.30;99.90
5796;DHT22;2924;51.458;7.046;2023-05-20T03:07:27;9.40;99.90
5796;DHT22;2924;51.458;7.046;2023-05-20T03:09:52;9.50;99.90
5796;DHT22;2924;51.458;7.046;2023-05-20T03:12:18;9.50;99.90
5796;DHT22;2924;51.458;7.046;2023-05-20T03:14:43;9.60;99.90
5796;DHT22;2924;51.458;7.046;2023-05-20T03:17:10;9.60;99.90
5796;DHT22;2924;51.458;7.046;2023-05-20T03:19:35;9.60;99.90
5796;DHT22;2924;51.458;7.046;2023-05-20T03:22:01;9.70;99.90
5796;DHT22;2924;51.458;7.046;2023-05-20T03:24:28;9.70;99.90
5796;DHT22;2924;51.458;7.046;2023-05-20T03:26:54;9.70;99.90
5796;DHT22;2924;51.458;7.046;2023-05-20T03:29:21;9.70;99.90
5796;DHT22;2924;51.458;7.046;2023-05-20T03:31:47;9.80;99.90
5796;DHT22;2924;51.458;7.046;2023-05-20T03:34:12;9.70;99.90
5796;DHT22;2924;51.458;7.046;2023-05-20T03:36:38;9.80;99.90
5796;DHT22;2924;51.458;7.046;2023-05-20T03:39:03;9.80;99.90
5796;DHT22;2924;51.458;7.046;2023-05-20T03:41:29;9.80;99.90
5796;DHT22;2924;51.458;7.046;2023-05-20T03:43:55;9.80;99.90
5796;DHT22;2924;51.458;7.046;2023-05-20T03:46:20;9.80;99.90
5796;DHT22;2924;51.458;7.046;2023-05-20T03:48:46;9.80;99.90
5796;DHT22;2924;51.458;7.046;2023-05-20T03:51:11;9.80;99.90
5796;DHT22;2924;51.458;7.046;2023-05-20T03:53:37;9.80;99.90
5796;DHT22;2924;51.458;7.046;2023-05-20T03:56:03;9.80;99.90
5796;DHT22;2924;51.458;7.046;2023-05-20T03:58:28;9.80;99.90
5796;DHT22;2924;51.458;7.046;2023-05-20T04:00:55;9.80;99.90
5796;DHT22;2924;51.458;7.046;2023-05-20T04:03:21;9.80;99.90
5796;DHT22;2924;51.458;7.046;2023-05-20T04:05:47;9.80;99.90
5796;DHT22;2924;51.458;7.046;2023-05-20T04:08:13;9.80;99.90
5796;DHT22;2924;51.458;7.046;2023-05-20T04:10:41;9.90;99.90
5796;DHT22;2924;51.458;7.046;2023-05-20T04:13:07;9.90;99.90
5796;DHT22;2924;51.458;7.046;2023-05-20T04:15:36;9.90;99.90
5796;DHT22;2924;51.458;7.046;2023-05-20T04:18:05;10.00;99.90
5796;DHT22;2924;51.458;7.046;2023-05-20T04:20:31;10.00;99.90
5796;DHT22;2924;51.458;7.046;2023-05-20T04:22:57;10.00;99.90
5796;DHT22;2924;51.458;7.046;2023-05-20T04:25:23;10.20;99.90
5796;DHT22;2924;51.458;7.046;2023-05-20T04:27:50;10.40;99.90
5796;DHT22;2924;51.458;7.046;2023-05-20T04:30:18;10.70;99.90
5796;DHT22;2924;51.458;7.046;2023-05-20T04:32:46;10.70;99.90
5796;DHT22;2924;51.458;7.046;2023-05-20T04:35:12;10.60;99.90
5796;DHT22;2924;51.458;7.046;2023-05-20T04:37:39;10.50;99.90
5796;DHT22;2924;51.458;7.046;2023-05-20T04:40:05;10.70;99.90
5796;DHT22;2924;51.458;7.046;2023-05-20T04:42:34;10.90;99.90
5796;DHT22;2924;51.458;7.046;2023-05-20T04:44:59;11.20;99.90
5796;DHT22;2924;51.458;7.046;2023-05-20T04:47:29;11.80;99.90
5796;DHT22;2924;51.458;7.046;2023-05-20T04:49:55;12.20;99.90
5796;DHT22;2924;51.458;7.046;2023-05-20T04:52:22;12.30;99.90
5796;DHT22;2924;51.458;7.046;2023-05-20T04:54:49;12.50;99.90
5796;DHT22;2924;51.458;7.046;2023-05-20T04:57:15;12.70;99.90
5796;DHT22;2924;51.458;7.046;2023-05-20T04:59:41;12.70;99.90
5796;DHT22;2924;51.458;7.046;2023-05-20T05:02:07;13.10;99.90
5796;DHT22;2924;51.458;7.046;2023-05-20T05:04:33;13.10;99.90
5796;DHT22;2924;51.458;7.046;2023-05-20T05:06:58;13.40;99.90
5796;DHT22;2924;51.458;7.046;2023-05-20T05:09:24;13.20;99.90
5796;DHT22;2924;51.458;7.046;2023-05-20T05:11:49;13.20;99.90
5796;DHT22;2924;51.458;7.046;2023-05-20T05:14:15;13.10;99.90
5796;DHT22;2924;51.458;7.046;2023-05-20T05:16:41;13.40;99.90
5796;DHT22;2924;51.458;7.046;2023-05-20T05:19:07;13.40;99.90
5796;DHT22;2924;51.458;7.046;2023-05-20T05:21:33;13.60;99.90
5796;DHT22;2924;51.458;7.046;2023-05-20T05:23:58;13.20;99.90
5796;DHT22;2924;51.458;7.046;2023-05-20T05:26:24;13.40;99.90
5796;DHT22;2924;51.458;7.046;2023-05-20T05:28:51;13.30;99.90
5796;DHT22;2924;51.458;7.046;2023-05-20T05:31:17;12.80;99.90
5796;DHT22;2924;51.458;7.046;2023-05-20T05:33:42;12.70;99.90
5796;DHT22;2924;51.458;7.046;2023-05-20T05:36:08;12.50;99.90
5796;DHT22;2924;51.458;7.046;2023-05-20T05:38:34;12.50;99.90
5796;DHT22;2924;51.458;7.046;2023-05-20T05:40:59;12.70;99.90
5796;DHT22;2924;51.458;7.046;2023-05-20T05:43:25;12.70;99.90
5796;DHT22;2924;51.458;7.046;2023-05-20T05:45:50;12.60;99.90
5796;DHT22;2924;51.458;7.046;2023-05-20T05:48:16;12.60;99.90
5796;DHT22;2924;51.458;7.046;2023-05-20T05:50:45;12.70;99.90
5796;DHT22;2924;51.458;7.046;2023-05-20T05:53:11;12.70;99.90
5796;DHT22;2924;51.458;7.046;2023-05-20T05:55:37;12.70;99.90
5796;DHT22;2924;51.458;7.046;2023-05-20T05:58:02;12.90;99.90
5796;DHT22;2924;51.458;7.046;2023-05-20T06:00:28;12.80;99.90
5796;DHT22;2924;51.458;7.046;2023-05-20T06:02:53;13.00;99.90
5796;DHT22;2924;51.458;7.046;2023-05-20T06:05:19;13.10;99.90
5796;DHT22;2924;51.458;7.046;2023-05-20T06:07:45;13.20;99.90
5796;DHT22;2924;51.458;7.046;2023-05-20T06:10:10;13.30;99.90
5796;DHT22;2924;51.458;7.046;2023-05-20T06:12:36;13.30;99.90
5796;DHT22;2924;51.458;7.046;2023-05-20T06:15:02;13.30;99.90
5796;DHT22;2924;51.458;7.046;2023-05-20T06:17:27;13.50;99.90
5796;DHT22;2924;51.458;7.046;2023-05-20T06:19:53;13.50;99.90
5796;DHT22;2924;51.458;7.046;2023-05-20T06:22:19;13.70;99.90
5796;DHT22;2924;51.458;7.046;2023-05-20T06:24:45;14.00;99.90
5796;DHT22;2924;51.458;7.046;2023-05-20T06:27:10;14.20;99.90
5796;DHT22;2924;51.458;7.046;2023-05-20T06:29:36;14.50;99.90
5796;DHT22;2924;51.458;7.046;2023-05-20T06:32:02;14.60;99.90
5796;DHT22;2924;51.458;7.046;2023-05-20T06:34:27;14.90;99.90
5796;DHT22;2924;51.458;7.046;2023-05-20T06:36:53;15.60;99.90
5796;DHT22;2924;51.458;7.046;2023-05-20T06:39:18;16.40;99.90
5796;DHT22;2924;51.458;7.046;2023-05-20T06:41:44;16.90;99.90
5796;DHT22;2924;51.458;7.046;2023-05-20T06:44:10;16.80;99.90
5796;DHT22;2924;51.458;7.046;2023-05-20T06:46:35;17.20;99.90
5796;DHT22;2924;51.458;7.046;2023-05-20T06:49:01;17.40;99.90
5796;DHT22;2924;51.458;7.046;2023-05-20T06:51:27;16.80;99.90
5796;DHT22;2924;51.458;7.046;2023-05-20T06:53:53;16.50;99.90
5796;DHT22;2924;51.458;7.046;2023-05-20T06:56:18;16.30;99.90
5796;DHT22;2924;51.458;7.046;2023-05-20T06:58:44;16.10;99.90
5796;DHT22;2924;51.458;7.046;2023-05-20T07:01:09;15.60;99.90
5796;DHT22;2924;51.458;7.046;2023-05-20T07:03:35;15.00;99.90
5796;DHT22;2924;51.458;7.046;2023-05-20T07:06:01;14.60;99.90
5796;DHT22;2924;51.458;7.046;2023-05-20T07:08:26;14.50;99.90
5796;DHT22;2924;51.458;7.046;2023-05-20T07:10:54;14.60;99.90
5796;DHT22;2924;51.458;7.046;2023-05-20T07:13:20;15.00;99.90
5796;DHT22;2924;51.458;7.046;2023-05-20T07:15:48;15.20;99.90
5796;DHT22;2924;51.458;7.046;2023-05-20T07:18:14;15.50;99.90
5796;DHT22;2924;51.458;7.046;2023-05-20T07:20:40;15.80;99.90
5796;DHT22;2924;51.458;7.046;2023-05-20T07:23:06;15.60;99.90
5796;DHT22;2924;51.458;7.046;2023-05-20T07:25:31;15.50;99.90
5796;DHT22;2924;51.458;7.046;2023-05-20T07:27:57;15.20;99.90
5796;DHT22;2924;51.458;7.046;2023-05-20T07:30:25;15.00;99.90
5796;DHT22;2924;51.458;7.046;2023-05-20T07:32:51;15.20;99.90
5796;DHT22;2924;51.458;7.046;2023-05-20T07:35:16;14.90;99.90
5796;DHT22;2924;51.458;7.046;2023-05-20T07:37:42;14.80;99.90
5796;DHT22;2924;51.458;7.046;2023-05-20T07:40:08;14.80;99.90
5796;DHT22;2924;51.458;7.046;2023-05-20T07:42:34;14.70;99.90
5796;DHT22;2924;51.458;7.046;2023-05-20T07:44:59;14.70;99.90
5796;DHT22;2924;51.458;7.046;2023-05-20T07:47:25;14.90;99.90
5796;DHT22;2924;51.458;7.046;2023-05-20T07:49:50;15.30;99.90
5796;DHT22;2924;51.458;7.046;2023-05-20T07:52:16;15.00;99.90
5796;DHT22;2924;51.458;7.046;2023-05-20T07:54:42;15.00;99.90
5796;DHT22;2924;51.458;7.046;2023-05-20T07:57:07;14.90;99.90
5796;DHT22;2924;51.458;7.046;2023-05-20T07:59:33;14.90;99.90
5796;DHT22;2924;51.458;7.046;2023-05-20T08:01:58;15.10;99.90
5796;DHT22;2924;51.458;7.046;2023-05-20T08:04:24;14.90;99.90
5796;DHT22;2924;51.458;7.046;2023-05-20T08:06:52;14.90;99.90
5796;DHT22;2924;51.458;7.046;2023-05-20T08:09:17;15.00;99.90
5796;DHT22;2924;51.458;7.046;2023-05-20T08:11:43;15.40;99.90
5796;DHT22;2924;51.458;7.046;2023-05-20T08:14:09;15.80;99.90
5796;DHT22;2924;51.458;7.046;2023-05-20T08:16:35;15.80;99.90
5796;DHT22;2924;51.458;7.046;2023-05-20T08:19:01;15.60;99.90
5796;DHT22;2924;51.458;7.046;2023-05-20T08:21:27;15.40;99.90
5796;DHT22;2924;51.458;7.046;2023-05-20T08:23:53;15.90;99.90
5796;DHT22;2924;51.458;7.046;2023-05-20T08:26:18;16.30;99.90
5796;DHT22;2924;51.458;7.046;2023-05-20T08:28:44;16.70;99.90
5796;DHT22;2924;51.458;7.046;2023-05-20T08:31:09;17.20;99.90
5796;DHT22;2924;51.458;7.046;2023-05-20T08:33:35;16.50;99.90
5796;DHT22;2924;51.458;7.046;2023-05-20T08:36:01;16.70;99.90
5796;DHT22;2924;51.458;7.046;2023-05-20T08:38:26;16.50;99.90
5796;DHT22;2924;51.458;7.046;2023-05-20T08:40:55;16.70;99.90
5796;DHT22;2924;51.458;7.046;2023-05-20T08:43:22;17.10;99.90
5796;DHT22;2924;51.458;7.046;2023-05-20T08:45:48;17.30;99.90
5796;DHT22;2924;51.458;7.046;2023-05-20T08:48:17;16.30;99.90
5796;DHT22;2924;51.458;7.046;2023-05-20T08:50:49;16.30;99.90
5796;DHT22;2924;51.458;7.046;2023-05-20T08:53:15;16.10;99.90
5796;DHT22;2924;51.458;7.046;2023-05-20T08:55:45;16.20;99.90
5796;DHT22;2924;51.458;7.046;2023-05-20T08:58:11;15.90;99.90
5796;DHT22;2924;51.458;7.046;2023-05-20T09:00:37;15.90;99.90
5796;DHT22;2924;51.458;7.046;2023-05-20T09:03:03;15.90;99.90
5796;DHT22;2924;51.458;7.046;2023-05-20T09:05:29;15.90;99.90
5796;DHT22;2924;51.458;7.046;2023-05-20T09:08:09;16.50;99.90
5796;DHT22;2924;51.458;7.046;2023-05-20T09:10:35;17.20;99.90
5796;DHT22;2924;51.458;7.046;2023-05-20T09:13:02;16.90;99.90
5796;DHT22;2924;51.458;7.046;2023-05-20T09:15:29;16.90;99.90
5796;DHT22;2924;51.458;7.046;2023-05-20T09:17:55;16.90;99.90
5796;DHT22;2924;51.458;7.046;2023-05-20T09:20:21;17.00;99.90
5796;DHT22;2924;51.458;7.046;2023-05-20T09:22:51;17.30;99.90
5796;DHT22;2924;51.458;7.046;2023-05-20T09:25:20;17.30;99.90
5796;DHT22;2924;51.458;7.046;2023-05-20T09:27:47;17.70;99.90
5796;DHT22;2924;51.458;7.046;2023-05-20T09:30:13;17.50;99.90
5796;DHT22;2924;51.458;7.046;2023-05-20T09:32:38;17.10;99.90
5796;DHT22;2924;51.458;7.046;2023-05-20T09:35:04;16.70;99.90
5796;DHT22;2924;51.458;7.046;2023-05-20T09:37:33;16.60;99.90
5796;DHT22;2924;51.458;7.046;2023-05-20T09:40:06;17.10;99.90
5796;DHT22;2924;51.458;7.046;2023-05-20T09:43:00;17.20;99.90
5796;DHT22;2924;51.458;7.046;2023-05-20T09:45:23;16.90;99.90
5796;DHT22;2924;51.458;7.046;2023-05-20T09:47:53;17.40;99.90
5796;DHT22;2924;51.458;7.046;2023-05-20T09:50:20;17.40;99.90
5796;DHT22;2924;51.458;7.046;2023-05-20T09:52:47;16.80;99.90
5796;DHT22;2924;51.458;7.046;2023-05-20T09:55:15;16.40;99.90
5796;DHT22;2924;51.458;7.046;2023-05-20T09:57:41;16.10;99.90
5796;DHT22;2924;51.458;7.046;2023-05-20T10:00:08;16.40;99.90
5796;DHT22;2924;51.458;7.046;2023-05-20T10:02:35;16.20;99.90
5796;DHT22;2924;51.458;7.046;2023-05-20T10:05:03;16.20;99.90
5796;DHT22;2924;51.458;7.046;2023-05-20T10:20:48;15.90;99.90
5796;DHT22;2924;51.458;7.046;2023-05-20T10:23:27;16.00;99.90
5796;DHT22;2924;51.458;7.046;2023-05-20T10:25:54;15.80;99.90
5796;DHT22;2924;51.458;7.046;2023-05-20T10:28:34;16.20;99.90
5796;DHT22;2924;51.458;7.046;2023-05-20T10:31:19;16.40;99.90
5796;DHT22;2924;51.458;7.046;2023-05-20T10:33:45;16.30;99.90
5796;DHT22;2924;51.458;7.046;2023-05-20T10:36:28;17.00;99.90
5796;DHT22;2924;51.458;7.046;2023-05-20T10:38:58;16.90;99.90
5796;DHT22;2924;51.458;7.046;2023-05-20T10:41:25;16.90;99.90
5796;DHT22;2924;51.458;7.046;2023-05-20T10:44:05;16.30;99.90
5796;DHT22;2924;51.458;7.046;2023-05-20T10:46:32;16.20;99.90
5796;DHT22;2924;51.458;7.046;2023-05-20T10:48:58;15.80;99.90
5796;DHT22;2924;51.458;7.046;2023-05-20T10:51:24;16.00;99.90
5796;DHT22;2924;51.458;7.046;2023-05-20T10:53:54;16.50;99.90
5796;DHT22;2924;51.458;7.046;2023-05-20T10:56:22;17.00;99.90
5796;DHT22;2924;51.458;7.046;2023-05-20T10:58:49;17.10;99.90
5796;DHT22;2924;51.458;7.046;2023-05-20T11:01:15;16.90;99.90
5796;DHT22;2924;51.458;7.046;2023-05-20T11:03:42;16.80;99.90
5796;DHT22;2924;51.458;7.046;2023-05-20T11:06:18;16.70;99.90
5796;DHT22;2924;51.458;7.046;2023-05-20T11:08:44;16.90;99.90
5796;DHT22;2924;51.458;7.046;2023-05-20T11:11:11;16.60;99.90
5796;DHT22;2924;51.458;7.046;2023-05-20T11:13:37;16.50;99.90
5796;DHT22;2924;51.458;7.046;2023-05-20T11:16:03;16.30;99.90
5796;DHT22;2924;51.458;7.046;2023-05-20T11:18:29;16.30;99.90
5796;DHT22;2924;51.458;7.046;2023-05-20T11:20:56;16.70;99.90
5796;DHT22;2924;51.458;7.046;2023-05-20T11:23:22;17.10;99.90
5796;DHT22;2924;51.458;7.046;2023-05-20T11:25:52;17.70;99.90
5796;DHT22;2924;51.458;7.046;2023-05-20T11:28:21;17.90;99.90
5796;DHT22;2924;51.458;7.046;2023-05-20T11:30:48;18.70;99.90
5796;DHT22;2924;51.458;7.046;2023-05-20T11:33:15;19.50;99.90
5796;DHT22;2924;51.458;7.046;2023-05-20T11:35:48;19.30;99.90
5796;DHT22;2924;51.458;7.046;2023-05-20T11:38:15;19.40;99.90
5796;DHT22;2924;51.458;7.046;2023-05-20T11:40:45;19.50;99.90
5796;DHT22;2924;51.458;7.046;2023-05-20T11:43:12;19.00;99.90
5796;DHT22;2924;51.458;7.046;2023-05-20T11:45:43;19.40;99.90
5796;DHT22;2924;51.458;7.046;2023-05-20T11:48:10;19.30;99.90
5796;DHT22;2924;51.458;7.046;2023-05-20T11:50:42;20.50;99.90
5796;DHT22;2924;51.458;7.046;2023-05-20T11:53:09;21.00;99.90
5796;DHT22;2924;51.458;7.046;2023-05-20T11:55:54;21.20;99.90
5796;DHT22;2924;51.458;7.046;2023-05-20T11:58:22;21.50;99.90
5796;DHT22;2924;51.458;7.046;2023-05-20T12:00:48;20.90;99.90
5796;DHT22;2924;51.458;7.046;2023-05-20T12:03:14;20.70;99.90
5796;DHT22;2924;51.458;7.046;2023-05-20T12:05:41;20.70;99.90
5796;DHT22;2924;51.458;7.046;2023-05-20T12:08:07;21.40;99.90
5796;DHT22;2924;51.458;7.046;2023-05-20T12:10:33;21.90;99.90
5796;DHT22;2924;51.458;7.046;2023-05-20T12:12:59;20.60;99.90
5796;DHT22;2924;51.458;7.046;2023-05-20T12:15:25;20.30;99.90
5796;DHT22;2924;51.458;7.046;2023-05-20T12:17:52;19.80;99.90
5796;DHT22;2924;51.458;7.046;2023-05-20T12:20:20;20.00;99.90
5796;DHT22;2924;51.458;7.046;2023-05-20T12:22:47;19.80;99.90
5796;DHT22;2924;51.458;7.046;2023-05-20T12:25:15;19.60;99.90
5796;DHT22;2924;51.458;7.046;2023-05-20T12:27:42;19.70;99.90
5796;DHT22;2924;51.458;7.046;2023-05-20T12:30:08;19.70;99.90
5796;DHT22;2924;51.458;7.046;2023-05-20T12:32:37;19.10;99.90
5796;DHT22;2924;51.458;7.046;2023-05-20T12:35:03;19.30;99.90
5796;DHT22;2924;51.458;7.046;2023-05-20T12:37:29;19.30;99.90
5796;DHT22;2924;51.458;7.046;2023-05-20T12:39:55;19.90;99.90
5796;DHT22;2924;51.458;7.046;2023-05-20T12:42:21;19.90;99.90
5796;DHT22;2924;51.458;7.046;2023-05-20T12:44:46;20.00;99.90
5796;DHT22;2924;51.458;7.046;2023-05-20T12:47:12;19.80;99.90
5796;DHT22;2924;51.458;7.046;2023-05-20T12:49:37;20.10;99.90
5796;DHT22;2924;51.458;7.046;2023-05-20T12:52:03;19.50;99.90
5796;DHT22;2924;51.458;7.046;2023-05-20T12:54:29;19.20;99.90
5796;DHT22;2924;51.458;7.046;2023-05-20T12:56:54;18.90;99.90
5796;DHT22;2924;51.458;7.046;2023-05-20T12:59:20;19.10;99.90
5796;DHT22;2924;51.458;7.046;2023-05-20T13:01:47;19.40;99.90
5796;DHT22;2924;51.458;7.046;2023-05-20T13:04:12;19.50;99.90
5796;DHT22;2924;51.458;7.046;2023-05-20T13:06:38;19.20;99.90
5796;DHT22;2924;51.458;7.046;2023-05-20T13:09:03;19.00;99.90
5796;DHT22;2924;51.458;7.046;2023-05-20T13:11:29;19.20;99.90
5796;DHT22;2924;51.458;7.046;2023-05-20T13:13:55;19.10;99.90
5796;DHT22;2924;51.458;7.046;2023-05-20T13:16:23;19.20;99.90
5796;DHT22;2924;51.458;7.046;2023-05-20T13:18:49;19.50;99.90
5796;DHT22;2924;51.458;7.046;2023-05-20T13:21:15;20.10;99.90
5796;DHT22;2924;51.458;7.046;2023-05-20T13:23:41;19.50;99.90
5796;DHT22;2924;51.458;7.046;2023-05-20T13:26:07;19.10;99.90
5796;DHT22;2924;51.458;7.046;2023-05-20T13:28:33;19.30;99.90
5796;DHT22;2924;51.458;7.046;2023-05-20T13:31:00;19.30;99.90
5796;DHT22;2924;51.458;7.046;2023-05-20T13:33:25;19.40;99.90
5796;DHT22;2924;51.458;7.046;2023-05-20T13:35:51;19.30;99.90
5796;DHT22;2924;51.458;7.046;2023-05-20T13:38:17;19.40;99.90
5796;DHT22;2924;51.458;7.046;2023-05-20T13:40:42;19.50;99.90
5796;DHT22;2924;51.458;7.046;2023-05-20T13:43:08;19.40;99.90
5796;DHT22;2924;51.458;7.046;2023-05-20T13:45:33;19.20;99.90
5796;DHT22;2924;51.458;7.046;2023-05-20T13:47:59;19.10;99.90
5796;DHT22;2924;51.458;7.046;2023-05-20T13:50:25;19.50;99.90
5796;DHT22;2924;51.458;7.046;2023-05-20T13:52:51;20.10;99.90
5796;DHT22;2924;51.458;7.046;2023-05-20T13:55:17;20.40;99.90
5796;DHT22;2924;51.458;7.046;2023-05-20T13:57:42;20.40;99.90
5796;DHT22;2924;51.458;7.046;2023-05-20T14:00:08;20.50;99.90
5796;DHT22;2924;51.458;7.046;2023-05-20T14:02:34;19.90;99.90
5796;DHT22;2924;51.458;7.046;2023-05-20T14:05:00;19.50;99.90
5796;DHT22;2924;51.458;7.046;2023-05-20T14:07:26;19.40;99.90
5796;DHT22;2924;51.458;7.046;2023-05-20T14:09:52;19.90;99.90
5796;DHT22;2924;51.458;7.046;2023-05-20T14:12:18;19.70;99.90
5796;DHT22;2924;51.458;7.046;2023-05-20T14:14:44;20.20;99.90
5796;DHT22;2924;51.458;7.046;2023-05-20T14:17:10;20.40;99.90
5796;DHT22;2924;51.458;7.046;2023-05-20T14:19:36;20.70;99.90
5796;DHT22;2924;51.458;7.046;2023-05-20T14:22:02;21.10;99.90
5796;DHT22;2924;51.458;7.046;2023-05-20T14:24:28;20.50;99.90
5796;DHT22;2924;51.458;7.046;2023-05-20T14:26:53;20.20;99.90
5796;DHT22;2924;51.458;7.046;2023-05-20T14:29:19;20.00;99.90
5796;DHT22;2924;51.458;7.046;2023-05-20T14:31:45;20.00;99.90
5796;DHT22;2924;51.458;7.046;2023-05-20T14:34:10;20.00;99.90
5796;DHT22;2924;51.458;7.046;2023-05-20T14:36:36;20.20;99.90
5796;DHT22;2924;51.458;7.046;2023-05-20T14:39:02;20.20;99.90
5796;DHT22;2924;51.458;7.046;2023-05-20T14:41:27;20.10;99.90
5796;DHT22;2924;51.458;7.046;2023-05-20T14:43:53;19.50;99.90
5796;DHT22;2924;51.458;7.046;2023-05-20T14:46:18;19.60;99.90
5796;DHT22;2924;51.458;7.046;2023-05-20T14:48:44;20.30;99.90
5796;DHT22;2924;51.458;7.046;2023-05-20T14:51:10;21.40;99.90
5796;DHT22;2924;51.458;7.046;2023-05-20T14:53:36;22.00;99.90
5796;DHT22;2924;51.458;7.046;2023-05-20T14:56:01;21.80;99.90
5796;DHT22;2924;51.458;7.046;2023-05-20T14:58:27;21.30;99.90
5796;DHT22;2924;51.458;7.046;2023-05-20T15:00:53;21.40;99.90
5796;DHT22;2924;51.458;7.046;2023-05-20T15:03:18;20.80;99.90
5796;DHT22;2924;51.458;7.046;2023-05-20T15:05:44;21.10;99.90
5796;DHT22;2924;51.458;7.046;2023-05-20T15:08:10;21.30;99.90
5796;DHT22;2924;51.458;7.046;2023-05-20T15:10:36;21.50;99.90
5796;DHT22;2924;51.458;7.046;2023-05-20T15:13:01;22.20;99.90
5796;DHT22;2924;51.458;7.046;2023-05-20T15:15:27;21.40;99.90
5796;DHT22;2924;51.458;7.046;2023-05-20T15:17:52;21.60;99.90
5796;DHT22;2924;51.458;7.046;2023-05-20T15:20:19;21.60;99.90
5796;DHT22;2924;51.458;7.046;2023-05-20T15:22:45;20.60;99.90
5796;DHT22;2924;51.458;7.046;2023-05-20T15:25:12;20.20;99.90
5796;DHT22;2924;51.458;7.046;2023-05-20T15:27:39;20.00;99.90
5796;DHT22;2924;51.458;7.046;2023-05-20T15:30:06;20.00;99.90
5796;DHT22;2924;51.458;7.046;2023-05-20T15:32:32;20.30;99.90
5796;DHT22;2924;51.458;7.046;2023-05-20T15:34:57;20.80;99.90
5796;DHT22;2924;51.458;7.046;2023-05-20T15:37:23;21.30;99.90
5796;DHT22;2924;51.458;7.046;2023-05-20T15:39:49;21.70;99.90
5796;DHT22;2924;51.458;7.046;2023-05-20T15:42:14;21.20;99.90
5796;DHT22;2924;51.458;7.046;2023-05-20T15:44:43;20.60;99.90
5796;DHT22;2924;51.458;7.046;2023-05-20T15:47:11;19.60;99.90
5796;DHT22;2924;51.458;7.046;2023-05-20T15:49:37;18.90;99.90
5796;DHT22;2924;51.458;7.046;2023-05-20T15:52:03;19.00;99.90
5796;DHT22;2924;51.458;7.046;2023-05-20T15:54:29;18.80;99.90
5796;DHT22;2924;51.458;7.046;2023-05-20T15:56:55;18.70;99.90
5796;DHT22;2924;51.458;7.046;2023-05-20T15:59:20;18.60;99.90
5796;DHT22;2924;51.458;7.046;2023-05-20T16:01:46;18.20;99.90
5796;DHT22;2924;51.458;7.046;2023-05-20T16:04:12;18.10;99.90
5796;DHT22;2924;51.458;7.046;2023-05-20T16:06:37;18.20;99.90
5796;DHT22;2924;51.458;7.046;2023-05-20T16:09:03;18.10;99.90
5796;DHT22;2924;51.458;7.046;2023-05-20T16:11:29;18.20;99.90
5796;DHT22;2924;51.458;7.046;2023-05-20T16:13:58;18.30;99.90